Time;durP1;ratioP1;P1;durP2;ratioP2;P2;SDS_P1;SDS_P2;PMS_P1;PMS_P2;Temp;Humidity;BMP_temperature;BMP_pressure;BME280_temperature;BME280_humidity;BME280_pressure;Samples;Min_cycle;Max_cycle;Signal;HPM_P1;HPM_P2
2022/07/12 00:02:23;;;;;;;7.68;5.18;;;;;;;;;;5072546;28;20182;-61
2022/07/12 00:04:49;;;;;;;8.68;5.22;;;;;;;;;;5047416;28;20647;-60
2022/07/12 00:07:16;;;;;;;6.03;4.80;;;;;;;;;;5074054;28;20182;-61
2022/07/12 00:09:42;;;;;;;5.38;4.85;;;;;;;;;;5074088;28;20187;-61
2022/07/12 00:12:09;;;;;;;7.47;5.38;;;;;;;;;;5073670;28;20648;-61
2022/07/12 00:14:35;;;;;;;7.45;5.25;;;;;;;;;;5071207;28;20202;-61
2022/07/12 00:17:04;;;;;;;4.93;4.30;;;;;;;;;;5060542;28;20181;-60
2022/07/12 00:19:30;;;;;;;6.13;5.03;;;;;;;;;;5056984;28;20233;-61
2022/07/12 00:21:56;;;;;;;7.40;4.97;;;;;;;;;;5075868;28;20170;-61
2022/07/12 00:24:22;;;;;;;9.82;5.93;;;;;;;;;;5073834;28;20731;-61
2022/07/12 00:26:48;;;;;;;6.85;5.85;;;;;;;;;;5073661;28;20226;-61
2022/07/12 00:29:14;;;;;;;10.07;6.10;;;;;;;;;;5045589;28;20202;-61
2022/07/12 00:31:40;;;;;;;7.43;5.28;;;;;;;;;;5054717;28;20191;-61
2022/07/12 00:34:06;;;;;;;7.25;4.93;;;;;;;;;;5053877;28;20288;-62
2022/07/12 00:36:32;;;;;;;6.78;5.28;;;;;;;;;;5068440;28;20190;-62
2022/07/12 00:38:59;;;;;;;6.57;5.57;;;;;;;;;;5052821;28;20186;-63
2022/07/12 00:41:25;;;;;;;7.63;5.40;;;;;;;;;;5073384;28;20206;-62
2022/07/12 00:43:52;;;;;;;6.55;5.20;;;;;;;;;;5071679;28;20251;-62
2022/07/12 00:46:22;;;;;;;7.53;5.38;;;;;;;;;;5073845;28;20663;-62
2022/07/12 00:48:48;;;;;;;7.07;5.60;;;;;;;;;;5065780;28;20206;-62
2022/07/12 00:51:14;;;;;;;8.15;5.90;;;;;;;;;;5056852;28;20193;-62
2022/07/12 00:53:40;;;;;;;7.43;5.38;;;;;;;;;;5073048;28;20214;-61
2022/07/12 00:56:07;;;;;;;7.85;5.63;;;;;;;;;;5073876;28;20269;-63
2022/07/12 00:58:33;;;;;;;7.53;5.65;;;;;;;;;;5055816;28;20187;-62
2022/07/12 01:00:59;;;;;;;6.25;5.65;;;;;;;;;;5071167;28;20194;-62
2022/07/12 01:03:27;;;;;;;8.75;5.95;;;;;;;;;;5052574;28;20194;-62
2022/07/12 01:05:53;;;;;;;6.85;5.80;;;;;;;;;;5068754;28;20186;-62
2022/07/12 01:08:20;;;;;;;6.55;5.95;;;;;;;;;;5073044;28;20197;-61
2022/07/12 01:10:48;;;;;;;10.57;6.10;;;;;;;;;;5072653;28;20174;-61
2022/07/12 01:13:14;;;;;;;10.65;6.30;;;;;;;;;;5071339;28;20593;-62
2022/07/12 01:15:41;;;;;;;8.30;6.47;;;;;;;;;;5072444;28;20305;-62
2022/07/12 01:18:07;;;;;;;9.10;6.35;;;;;;;;;;5067224;28;20269;-61
2022/07/12 01:20:33;;;;;;;7.38;6.43;;;;;;;;;;5072012;28;20178;-62
2022/07/12 01:23:00;;;;;;;8.70;6.85;;;;;;;;;;5061288;28;20701;-62
2022/07/12 01:25:27;;;;;;;12.15;7.25;;;;;;;;;;5061530;28;20223;-63
2022/07/12 01:27:53;;;;;;;7.88;7.07;;;;;;;;;;5068871;28;20186;-62
2022/07/12 01:30:19;;;;;;;7.63;6.70;;;;;;;;;;5073358;28;20182;-62
2022/07/12 01:32:45;;;;;;;8.88;7.13;;;;;;;;;;5068408;28;20175;-61
2022/07/12 01:35:11;;;;;;;8.23;6.90;;;;;;;;;;5052607;28;20219;-62
2022/07/12 01:37:38;;;;;;;8.07;6.53;;;;;;;;;;5067575;28;20339;-61
2022/07/12 01:40:09;;;;;;;10.75;6.88;;;;;;;;;;5070928;28;20233;-61
2022/07/12 01:42:35;;;;;;;8.63;6.75;;;;;;;;;;5034439;28;20183;-62
2022/07/12 01:45:02;;;;;;;10.27;6.85;;;;;;;;;;5069672;28;20190;-62
2022/07/12 01:47:30;;;;;;;9.02;6.00;;;;;;;;;;5071818;28;20183;-62
2022/07/12 01:49:57;;;;;;;8.90;7.10;;;;;;;;;;5069439;28;20185;-62
2022/07/12 01:52:23;;;;;;;9.38;6.63;;;;;;;;;;5071972;28;20308;-63
2022/07/12 01:54:49;;;;;;;7.82;7.03;;;;;;;;;;5071827;28;20586;-62
2022/07/12 01:57:15;;;;;;;7.80;6.63;;;;;;;;;;5055200;28;20652;-62
2022/07/12 01:59:42;;;;;;;8.77;6.85;;;;;;;;;;5069629;28;20263;-62
2022/07/12 02:02:08;;;;;;;9.70;6.80;;;;;;;;;;5068556;28;20190;-62
2022/07/12 02:04:35;;;;;;;9.38;6.88;;;;;;;;;;5048949;28;20195;-61
2022/07/12 02:07:01;;;;;;;8.25;6.53;;;;;;;;;;5071793;28;20179;-62
2022/07/12 02:09:27;;;;;;;7.68;6.80;;;;;;;;;;5070300;28;20194;-62
2022/07/12 02:11:54;;;;;;;8.25;6.93;;;;;;;;;;5068377;28;20178;-62
2022/07/12 02:14:21;;;;;;;8.52;7.25;;;;;;;;;;5071659;28;20228;-63
2022/07/12 02:16:47;;;;;;;8.82;6.95;;;;;;;;;;5072299;28;20190;-63
2022/07/12 02:19:14;;;;;;;8.18;6.80;;;;;;;;;;5050611;28;20185;-63
2022/07/12 02:21:40;;;;;;;8.50;6.82;;;;;;;;;;5067549;28;20197;-64
2022/07/12 02:24:07;;;;;;;10.73;7.15;;;;;;;;;;5071050;28;20179;-62
2022/07/12 02:26:34;;;;;;;8.20;7.15;;;;;;;;;;5068855;28;20244;-63
2022/07/12 02:29:01;;;;;;;8.45;7.03;;;;;;;;;;5069520;28;20174;-62
2022/07/12 02:31:27;;;;;;;10.07;7.32;;;;;;;;;;5069296;28;20191;-62
2022/07/12 02:33:53;;;;;;;8.27;6.88;;;;;;;;;;5037379;28;20211;-63
2022/07/12 02:36:20;;;;;;;7.63;6.75;;;;;;;;;;5071404;28;20189;-61
2022/07/12 02:38:46;;;;;;;7.85;6.63;;;;;;;;;;5070284;28;20182;-63
2022/07/12 02:41:12;;;;;;;8.00;6.78;;;;;;;;;;5052964;28;20186;-63
2022/07/12 02:43:38;;;;;;;8.00;6.00;;;;;;;;;;5067837;28;20181;-62
2022/07/12 02:46:04;;;;;;;7.47;6.43;;;;;;;;;;5069849;28;20232;-62
2022/07/12 02:48:31;;;;;;;8.60;6.82;;;;;;;;;;5064663;28;20198;-63
2022/07/12 02:50:57;;;;;;;8.48;6.90;;;;;;;;;;5071082;28;20194;-63
2022/07/12 02:53:23;;;;;;;8.85;6.38;;;;;;;;;;5067825;28;20197;-62
2022/07/12 02:55:49;;;;;;;9.02;6.60;;;;;;;;;;5072204;28;20218;-62
2022/07/12 02:58:15;;;;;;;8.82;6.65;;;;;;;;;;5070235;28;20582;-62
2022/07/12 03:00:43;;;;;;;7.75;6.47;;;;;;;;;;5047167;28;20186;-62
2022/07/12 03:03:09;;;;;;;10.20;6.72;;;;;;;;;;5059714;28;20216;-62
2022/07/12 03:05:35;;;;;;;7.45;6.32;;;;;;;;;;5072615;28;20707;-62
2022/07/12 03:08:02;;;;;;;12.02;6.30;;;;;;;;;;5070172;28;20555;-62
2022/07/12 03:10:29;;;;;;;8.57;6.90;;;;;;;;;;5056491;28;20703;-62
2022/07/12 03:12:55;;;;;;;7.97;6.70;;;;;;;;;;5070454;28;20182;-61
2022/07/12 03:15:21;;;;;;;8.07;7.10;;;;;;;;;;5056495;28;20219;-62
2022/07/12 03:17:47;;;;;;;8.75;7.03;;;;;;;;;;5066199;28;20183;-60
2022/07/12 03:20:14;;;;;;;9.30;6.90;;;;;;;;;;5070363;28;20669;-62
2022/07/12 03:22:41;;;;;;;8.85;6.95;;;;;;;;;;5072596;28;20193;-62
2022/07/12 03:25:08;;;;;;;8.35;6.80;;;;;;;;;;5055635;28;20227;-63
2022/07/12 03:27:34;;;;;;;10.52;6.53;;;;;;;;;;5068167;28;20190;-59
2022/07/12 03:30:01;;;;;;;9.20;7.10;;;;;;;;;;5068849;28;20221;-62
2022/07/12 03:32:27;;;;;;;8.52;6.72;;;;;;;;;;5071826;28;20236;-62
2022/07/12 03:34:53;;;;;;;10.13;7.30;;;;;;;;;;5067007;28;20207;-61
2022/07/12 03:37:19;;;;;;;12.45;7.18;;;;;;;;;;5053846;28;20201;-62
2022/07/12 03:39:46;;;;;;;8.50;6.93;;;;;;;;;;5066761;28;20187;-64
2022/07/12 03:42:12;;;;;;;8.40;6.70;;;;;;;;;;5066686;28;20186;-62
2022/07/12 03:44:38;;;;;;;9.02;7.22;;;;;;;;;;5068075;28;20424;-62
2022/07/12 03:47:05;;;;;;;8.77;6.90;;;;;;;;;;5060827;28;20182;-62
2022/07/12 03:49:31;;;;;;;9.80;7.05;;;;;;;;;;5064704;28;20182;-62
2022/07/12 03:51:57;;;;;;;8.07;6.88;;;;;;;;;;5071454;28;20240;-61
2022/07/12 03:54:24;;;;;;;10.32;7.18;;;;;;;;;;5069130;28;20272;-62
2022/07/12 03:59:35;;;;;;;10.07;6.95;;;;;;;;;;5069338;28;20236;-60
2022/07/12 04:02:04;;;;;;;9.57;6.47;;;;;;;;;;5053136;28;20194;-62
2022/07/12 04:04:30;;;;;;;10.70;7.55;;;;;;;;;;5058914;28;20652;-63
2022/07/12 04:06:56;;;;;;;10.93;7.18;;;;;;;;;;5045902;28;20195;-62
2022/07/12 04:09:22;;;;;;;10.95;7.70;;;;;;;;;;5063952;28;20643;-62
2022/07/12 04:11:49;;;;;;;8.77;7.40;;;;;;;;;;5068309;28;20179;-64
2022/07/12 04:14:15;;;;;;;11.07;7.85;;;;;;;;;;5049463;28;20218;-63
2022/07/12 04:16:42;;;;;;;9.32;8.10;;;;;;;;;;5067383;28;20293;-63
2022/07/12 04:19:11;;;;;;;9.35;7.45;;;;;;;;;;5052639;28;20179;-63
2022/07/12 04:21:37;;;;;;;12.02;7.85;;;;;;;;;;5068836;28;20182;-62
2022/07/12 04:24:04;;;;;;;10.10;7.78;;;;;;;;;;5073089;28;20197;-62
2022/07/12 04:26:31;;;;;;;10.48;7.85;;;;;;;;;;5071809;28;20697;-63
2022/07/12 04:28:57;;;;;;;11.65;7.40;;;;;;;;;;5072885;28;20225;-63
2022/07/12 04:31:23;;;;;;;9.43;7.95;;;;;;;;;;5070914;28;20190;-62
2022/07/12 04:33:49;;;;;;;12.68;7.82;;;;;;;;;;5069715;28;20625;-62
2022/07/12 04:36:16;;;;;;;9.43;8.35;;;;;;;;;;5050637;28;20179;-62
2022/07/12 04:38:42;;;;;;;9.70;8.05;;;;;;;;;;5069522;28;20190;-62
2022/07/12 04:41:08;;;;;;;11.43;8.50;;;;;;;;;;5073618;28;20614;-63
2022/07/12 04:43:34;;;;;;;11.18;8.57;;;;;;;;;;5070543;28;20187;-62
2022/07/12 04:46:10;;;;;;;10.93;8.45;;;;;;;;;;5064693;28;20210;-63
2022/07/12 04:48:36;;;;;;;10.13;8.05;;;;;;;;;;5055772;28;20193;-62
2022/07/12 04:51:02;;;;;;;14.25;9.45;;;;;;;;;;5073429;28;20178;-63
2022/07/12 04:53:29;;;;;;;11.10;9.13;;;;;;;;;;5047957;28;20253;-63
2022/07/12 04:55:55;;;;;;;12.88;9.98;;;;;;;;;;5065512;28;20637;-62
2022/07/12 04:58:23;;;;;;;15.98;10.95;;;;;;;;;;5066898;28;20178;-62
2022/07/12 05:00:49;;;;;;;13.48;10.40;;;;;;;;;;5072080;28;20174;-63
2022/07/12 05:03:15;;;;;;;15.18;11.27;;;;;;;;;;5066843;28;20274;-63
2022/07/12 05:05:41;;;;;;;13.82;9.98;;;;;;;;;;5043315;28;20199;-63
2022/07/12 05:08:08;;;;;;;15.38;10.90;;;;;;;;;;5063813;28;20179;-63
2022/07/12 05:10:34;;;;;;;16.23;11.10;;;;;;;;;;5066783;28;20186;-61
2022/07/12 05:13:00;;;;;;;15.80;11.13;;;;;;;;;;5071525;28;20185;-63
2022/07/12 05:15:26;;;;;;;15.63;11.30;;;;;;;;;;5054888;28;20241;-63
2022/07/12 05:17:52;;;;;;;20.10;11.20;;;;;;;;;;5069244;28;20179;-63
2022/07/12 05:20:19;;;;;;;22.48;10.65;;;;;;;;;;5046731;28;20190;-63
2022/07/12 05:22:45;;;;;;;18.77;12.15;;;;;;;;;;5064576;28;20183;-63
2022/07/12 05:25:11;;;;;;;21.27;10.90;;;;;;;;;;5070490;28;20249;-62
2022/07/12 05:27:37;;;;;;;17.23;12.55;;;;;;;;;;5071340;28;20197;-63
2022/07/12 05:30:04;;;;;;;19.40;12.35;;;;;;;;;;5070047;28;20190;-62
2022/07/12 05:32:30;;;;;;;19.48;12.27;;;;;;;;;;5054186;28;20189;-63
2022/07/12 05:34:57;;;;;;;15.45;11.88;;;;;;;;;;5070926;28;20732;-63
2022/07/12 05:37:25;;;;;;;18.25;12.70;;;;;;;;;;5071406;28;20218;-63
2022/07/12 05:39:51;;;;;;;16.98;11.93;;;;;;;;;;5064566;28;20191;-62
2022/07/12 05:42:17;;;;;;;19.92;12.95;;;;;;;;;;5070149;28;20191;-63
2022/07/12 05:44:43;;;;;;;21.05;13.65;;;;;;;;;;5070172;28;20592;-63
2022/07/12 05:47:09;;;;;;;20.48;12.98;;;;;;;;;;5068324;28;20311;-62
2022/07/12 05:49:36;;;;;;;25.23;12.88;;;;;;;;;;5067087;28;20172;-62
2022/07/12 05:54:47;;;;;;;18.38;12.75;;;;;;;;;;5070746;28;20225;-62
2022/07/12 05:57:14;;;;;;;19.63;13.07;;;;;;;;;;5051468;28;20635;-63
2022/07/12 05:59:40;;;;;;;20.83;13.32;;;;;;;;;;5071602;28;20179;-62
2022/07/12 06:02:07;;;;;;;17.85;12.40;;;;;;;;;;5069226;28;20190;-62
2022/07/12 06:04:33;;;;;;;20.58;14.00;;;;;;;;;;5062238;28;20194;-62
2022/07/12 06:07:00;;;;;;;22.38;13.70;;;;;;;;;;5064364;28;20178;-63
2022/07/12 06:09:26;;;;;;;22.75;13.18;;;;;;;;;;5056752;28;20199;-62
2022/07/12 06:11:53;;;;;;;19.95;13.45;;;;;;;;;;5057472;28;20578;-62
2022/07/12 06:14:19;;;;;;;15.65;13.02;;;;;;;;;;5069016;28;20221;-63
2022/07/12 06:16:45;;;;;;;17.13;12.50;;;;;;;;;;5053739;28;20757;-63
2022/07/12 06:19:11;;;;;;;17.08;12.30;;;;;;;;;;5056387;28;20211;-63
2022/07/12 06:21:38;;;;;;;19.65;13.30;;;;;;;;;;5051566;28;20189;-62
2022/07/12 06:24:14;;;;;;;14.60;12.35;;;;;;;;;;5070887;28;20217;-63
2022/07/12 06:26:40;;;;;;;15.60;12.68;;;;;;;;;;5067938;28;20232;-63
2022/07/12 06:29:07;;;;;;;16.80;11.57;;;;;;;;;;5071442;28;20528;-63
2022/07/12 06:31:34;;;;;;;16.23;13.00;;;;;;;;;;5065191;28;20647;-63
2022/07/12 06:34:01;;;;;;;18.20;12.27;;;;;;;;;;5059862;28;20179;-63
2022/07/12 06:36:27;;;;;;;18.73;11.68;;;;;;;;;;5053134;28;20236;-63
2022/07/12 06:38:53;;;;;;;15.15;11.50;;;;;;;;;;5055856;28;20189;-63
2022/07/12 06:41:19;;;;;;;16.17;11.45;;;;;;;;;;5068410;28;20266;-61
2022/07/12 06:43:45;;;;;;;16.80;11.55;;;;;;;;;;5035392;28;20200;-63
2022/07/12 06:46:11;;;;;;;16.75;11.27;;;;;;;;;;5057565;28;20182;-63
2022/07/12 06:48:38;;;;;;;16.50;11.18;;;;;;;;;;5058939;28;20290;-63
2022/07/12 06:51:04;;;;;;;12.57;10.77;;;;;;;;;;5061330;28;20185;-63
2022/07/12 06:53:30;;;;;;;14.82;10.55;;;;;;;;;;5071187;28;20240;-63
2022/07/12 06:55:57;;;;;;;14.30;10.38;;;;;;;;;;5040888;28;20229;-62
2022/07/12 06:58:23;;;;;;;14.10;10.50;;;;;;;;;;5057286;28;20916;-62
2022/07/12 07:00:49;;;;;;;13.27;10.32;;;;;;;;;;5066458;28;20193;-63
2022/07/12 07:03:15;;;;;;;16.63;10.65;;;;;;;;;;5061535;28;20691;-62
2022/07/12 07:05:41;;;;;;;14.38;10.60;;;;;;;;;;5056534;28;20194;-62
2022/07/12 07:08:07;;;;;;;13.18;10.38;;;;;;;;;;5065059;28;20194;-62
2022/07/12 07:10:33;;;;;;;16.40;10.63;;;;;;;;;;5058173;28;20187;-61
2022/07/12 07:12:59;;;;;;;17.17;10.75;;;;;;;;;;5065286;28;20328;-62
2022/07/12 07:15:26;;;;;;;11.77;10.57;;;;;;;;;;5066344;28;20588;-62
2022/07/12 07:17:52;;;;;;;15.40;10.50;;;;;;;;;;5066779;28;20325;-62
2022/07/12 07:20:19;;;;;;;15.02;11.52;;;;;;;;;;5065723;28;20248;-62
2022/07/12 07:22:45;;;;;;;14.75;11.52;;;;;;;;;;5070505;28;20269;-63
2022/07/12 07:25:11;;;;;;;14.57;11.30;;;;;;;;;;5048980;28;20190;-62
2022/07/12 07:27:38;;;;;;;16.60;11.63;;;;;;;;;;5063174;28;20289;-61
2022/07/12 07:32:50;;;;;;;17.15;11.52;;;;;;;;;;5065455;28;20190;-63
2022/07/12 07:35:16;;;;;;;17.40;11.35;;;;;;;;;;5072153;28;20263;-62
2022/07/12 07:37:42;;;;;;;14.57;10.90;;;;;;;;;;5068393;28;20187;-62
2022/07/12 07:40:09;;;;;;;13.48;10.50;;;;;;;;;;5063813;28;20604;-62
2022/07/12 07:42:35;;;;;;;14.75;10.63;;;;;;;;;;5067408;28;20190;-61
2022/07/12 07:45:03;;;;;;;13.05;9.95;;;;;;;;;;5069016;28;20195;-62
2022/07/12 07:47:29;;;;;;;12.05;9.70;;;;;;;;;;5043824;28;20191;-62
2022/07/12 07:49:56;;;;;;;13.98;10.18;;;;;;;;;;5064746;28;20196;-62
2022/07/12 07:52:22;;;;;;;11.55;9.43;;;;;;;;;;5069934;28;20623;-62
2022/07/12 07:54:48;;;;;;;13.60;9.93;;;;;;;;;;5066342;28;20219;-62
2022/07/12 07:57:14;;;;;;;11.48;8.63;;;;;;;;;;5060793;28;20258;-62
2022/07/12 07:59:40;;;;;;;13.70;9.77;;;;;;;;;;5073918;28;20190;-62
2022/07/12 08:02:06;;;;;;;12.93;8.50;;;;;;;;;;5070999;28;20707;-61
2022/07/12 08:04:32;;;;;;;7.00;6.30;;;;;;;;;;5068737;28;20183;-62
2022/07/12 08:06:59;;;;;;;9.45;6.35;;;;;;;;;;5070357;28;20270;-61
2022/07/12 08:09:25;;;;;;;8.30;6.35;;;;;;;;;;5073178;28;20189;-61
2022/07/12 08:11:51;;;;;;;7.93;4.80;;;;;;;;;;5055275;28;20194;-61
2022/07/12 08:14:17;;;;;;;7.43;5.68;;;;;;;;;;5071429;28;20218;-59
2022/07/12 08:16:44;;;;;;;10.13;5.10;;;;;;;;;;5066698;28;20186;-61
2022/07/12 08:19:10;;;;;;;6.00;4.72;;;;;;;;;;5066177;28;20555;-61
2022/07/12 08:21:36;;;;;;;8.77;6.03;;;;;;;;;;5068076;28;20175;-61
2022/07/12 08:24:02;;;;;;;7.57;5.28;;;;;;;;;;5068217;28;20214;-61
2022/07/12 08:26:28;;;;;;;8.25;5.55;;;;;;;;;;5059032;28;20238;-61
2022/07/12 08:28:54;;;;;;;11.50;5.97;;;;;;;;;;5071150;28;20175;-61
2022/07/12 08:31:21;;;;;;;6.65;5.75;;;;;;;;;;5082380;28;20186;-61
2022/07/12 08:33:47;;;;;;;7.00;5.78;;;;;;;;;;5055717;28;20667;-61
2022/07/12 08:36:13;;;;;;;9.93;6.60;;;;;;;;;;5073252;28;20193;-61
2022/07/12 08:38:43;;;;;;;11.15;6.75;;;;;;;;;;5061263;28;20266;-61
2022/07/12 08:41:11;;;;;;;11.20;7.18;;;;;;;;;;5055381;28;20186;-61
2022/07/12 08:43:38;;;;;;;19.50;6.82;;;;;;;;;;5070983;28;20190;-61
2022/07/12 08:46:05;;;;;;;9.02;6.32;;;;;;;;;;5055509;28;20546;-61
2022/07/12 08:48:31;;;;;;;10.10;6.15;;;;;;;;;;5052752;28;20658;-61
2022/07/12 08:51:02;;;;;;;9.15;6.60;;;;;;;;;;5071642;28;20186;-62
2022/07/12 08:53:28;;;;;;;9.52;7.53;;;;;;;;;;5068340;28;20640;-62
2022/07/12 08:55:54;;;;;;;9.90;7.00;;;;;;;;;;5072340;28;20229;-61
2022/07/12 08:58:20;;;;;;;11.82;7.05;;;;;;;;;;5072119;28;20219;-61
2022/07/12 09:00:47;;;;;;;9.30;6.85;;;;;;;;;;5069033;28;20182;-62
2022/07/12 09:03:14;;;;;;;11.82;7.22;;;;;;;;;;5037533;28;20194;-61
2022/07/12 09:05:47;;;;;;;11.60;8.07;;;;;;;;;;5073253;28;20187;-62
2022/07/12 09:08:14;;;;;;;10.30;7.78;;;;;;;;;;5062079;28;20199;-61
2022/07/12 09:10:49;;;;;;;11.18;7.00;;;;;;;;;;5070454;28;20187;-61
2022/07/12 09:13:15;;;;;;;11.88;6.80;;;;;;;;;;5072269;28;20181;-61
2022/07/12 09:15:42;;;;;;;10.13;7.70;;;;;;;;;;5070441;28;20215;-61
2022/07/12 09:18:22;;;;;;;12.63;8.18;;;;;;;;;;5064622;28;20171;-61
2022/07/12 09:20:55;;;;;;;12.45;7.85;;;;;;;;;;5054385;28;20179;-61
2022/07/12 09:23:21;;;;;;;9.73;7.82;;;;;;;;;;5071167;28;20186;-61
2022/07/12 09:25:50;;;;;;;11.10;6.90;;;;;;;;;;5073133;28;20229;-60
2022/07/12 09:28:17;;;;;;;15.15;8.93;;;;;;;;;;5067993;28;20185;-60
2022/07/12 09:30:50;;;;;;;12.90;7.95;;;;;;;;;;5064490;28;20191;-60
2022/07/12 09:36:13;;;;;;;11.43;7.28;;;;;;;;;;5070018;28;20305;-61
2022/07/12 09:38:39;;;;;;;13.02;7.80;;;;;;;;;;5067242;28;20178;-59
2022/07/12 09:41:08;;;;;;;11.65;7.57;;;;;;;;;;5059036;28;20188;-59
2022/07/12 09:43:35;;;;;;;12.25;9.07;;;;;;;;;;5069512;28;20195;-59
2022/07/12 09:46:01;;;;;;;14.07;9.60;;;;;;;;;;5070248;28;20372;-60
2022/07/12 09:48:28;;;;;;;12.00;7.88;;;;;;;;;;5071492;28;20189;-59
2022/07/12 09:50:56;;;;;;;11.35;8.68;;;;;;;;;;5052854;28;20178;-61
2022/07/12 09:53:30;;;;;;;15.23;7.82;;;;;;;;;;5068962;28;20174;-60
2022/07/12 09:55:56;;;;;;;13.63;9.20;;;;;;;;;;5072637;28;20209;-59
2022/07/12 09:58:24;;;;;;;18.67;10.30;;;;;;;;;;5068778;28;20201;-60
2022/07/12 10:00:52;;;;;;;17.38;9.52;;;;;;;;;;5068368;28;20170;-59
2022/07/12 10:03:20;;;;;;;14.45;9.23;;;;;;;;;;5072433;28;20228;-60
2022/07/12 10:05:47;;;;;;;18.77;9.93;;;;;;;;;;5070068;28;20186;-59
2022/07/12 10:08:14;;;;;;;14.02;9.30;;;;;;;;;;5070067;28;20653;-59
2022/07/12 10:10:40;;;;;;;18.20;9.13;;;;;;;;;;5049413;28;20608;-58
2022/07/12 10:13:06;;;;;;;19.70;9.07;;;;;;;;;;5045420;28;20209;-59
2022/07/12 10:15:33;;;;;;;14.05;7.90;;;;;;;;;;5062464;28;20217;-59
2022/07/12 10:18:01;;;;;;;13.90;7.20;;;;;;;;;;5047939;28;20182;-58
2022/07/12 10:20:28;;;;;;;9.82;7.32;;;;;;;;;;5070721;28;20177;-60
2022/07/12 10:22:54;;;;;;;15.23;6.82;;;;;;;;;;5070598;28;20188;-60
2022/07/12 10:25:26;;;;;;;8.45;6.70;;;;;;;;;;5058694;28;20228;-59
2022/07/12 10:27:52;;;;;;;11.77;8.27;;;;;;;;;;5051826;28;20202;-60
2022/07/12 10:30:20;;;;;;;11.18;7.70;;;;;;;;;;5066020;28;20655;-60
2022/07/12 10:32:48;;;;;;;12.43;7.07;;;;;;;;;;5069355;28;20624;-60
2022/07/12 10:35:32;;;;;;;10.32;6.40;;;;;;;;;;5064082;28;20574;-60
2022/07/12 10:38:17;;;;;;;9.80;6.30;;;;;;;;;;5065508;28;20696;-60
2022/07/12 10:40:45;;;;;;;8.15;5.70;;;;;;;;;;5070780;28;20259;-60
2022/07/12 10:43:11;;;;;;;11.85;6.15;;;;;;;;;;5068003;28;20200;-60
2022/07/12 10:45:38;;;;;;;9.05;5.72;;;;;;;;;;5061714;28;20269;-60
2022/07/12 10:48:06;;;;;;;11.13;6.38;;;;;;;;;;5068441;28;20214;-59
2022/07/12 10:50:43;;;;;;;10.57;6.85;;;;;;;;;;5065444;28;20206;-60
2022/07/12 10:53:18;;;;;;;11.73;7.80;;;;;;;;;;5054431;28;20182;-60
2022/07/12 10:56:07;;;;;;;7.07;5.53;;;;;;;;;;5054294;28;20233;-60
2022/07/12 10:58:37;;;;;;;13.73;7.55;;;;;;;;;;5068973;28;20178;-59
2022/07/12 11:01:04;;;;;;;9.82;6.60;;;;;;;;;;5065118;28;20757;-59
2022/07/12 11:03:42;;;;;;;12.35;6.50;;;;;;;;;;5069187;28;20198;-59
2022/07/12 11:06:10;;;;;;;7.10;5.65;;;;;;;;;;5070548;28;20190;-59
2022/07/12 11:08:51;;;;;;;11.60;6.32;;;;;;;;;;5070710;28;20183;-60
2022/07/12 11:11:18;;;;;;;12.32;6.97;;;;;;;;;;5070072;28;20174;-60
2022/07/12 11:13:44;;;;;;;10.02;7.78;;;;;;;;;;5070782;28;20186;-59
2022/07/12 11:16:10;;;;;;;11.07;7.10;;;;;;;;;;5069982;28;20206;-58
2022/07/12 11:18:37;;;;;;;7.75;5.72;;;;;;;;;;5070339;28;20194;-59
2022/07/12 11:21:04;;;;;;;9.60;5.85;;;;;;;;;;5067939;28;20254;-60
2022/07/12 11:23:30;;;;;;;13.70;6.93;;;;;;;;;;5070648;28;20204;-60
2022/07/12 11:25:58;;;;;;;9.23;5.97;;;;;;;;;;5045883;28;20309;-59
2022/07/12 11:28:24;;;;;;;13.63;6.70;;;;;;;;;;5067445;28;20272;-60
2022/07/12 11:30:51;;;;;;;8.65;6.00;;;;;;;;;;5066269;28;20181;-59
2022/07/12 11:33:17;;;;;;;9.98;6.90;;;;;;;;;;5056876;28;20662;-59
2022/07/12 11:35:47;;;;;;;12.85;7.78;;;;;;;;;;5071418;28;20202;-59
2022/07/12 11:38:14;;;;;;;19.10;7.47;;;;;;;;;;5073622;28;20230;-59
2022/07/12 11:40:40;;;;;;;11.70;7.32;;;;;;;;;;5047714;28;20201;-59
2022/07/12 11:43:10;;;;;;;17.33;9.00;;;;;;;;;;5072480;28;20186;-60
2022/07/12 11:45:38;;;;;;;14.57;8.63;;;;;;;;;;5072737;28;20193;-60
2022/07/12 11:48:05;;;;;;;13.25;7.60;;;;;;;;;;5074406;28;20556;-60
2022/07/12 11:50:34;;;;;;;12.23;7.95;;;;;;;;;;5072472;28;20221;-59
2022/07/12 11:53:00;;;;;;;14.70;7.88;;;;;;;;;;5074264;28;20179;-59
2022/07/12 11:55:26;;;;;;;13.05;8.77;;;;;;;;;;5057914;28;20210;-59
2022/07/12 11:58:03;;;;;;;13.98;7.90;;;;;;;;;;5056762;28;20182;-59
2022/07/12 12:00:29;;;;;;;17.80;8.05;;;;;;;;;;5065334;28;20187;-59
2022/07/12 12:02:55;;;;;;;13.82;9.45;;;;;;;;;;5057890;28;20181;-59
2022/07/12 12:05:21;;;;;;;12.40;7.88;;;;;;;;;;5072753;28;20648;-59
2022/07/12 12:07:48;;;;;;;15.70;8.75;;;;;;;;;;5070064;28;20240;-59
2022/07/12 12:10:14;;;;;;;11.68;8.43;;;;;;;;;;5067875;28;20171;-59
2022/07/12 12:12:46;;;;;;;11.73;8.55;;;;;;;;;;5068451;28;20210;-59
2022/07/12 12:15:14;;;;;;;13.60;9.75;;;;;;;;;;5062513;28;20242;-59
2022/07/12 12:17:44;;;;;;;11.63;8.20;;;;;;;;;;5056532;28;20237;-59
2022/07/12 12:20:15;;;;;;;22.77;9.77;;;;;;;;;;5074979;28;20175;-59
2022/07/12 12:22:43;;;;;;;15.88;9.75;;;;;;;;;;5073158;28;20178;-59
2022/07/12 12:25:13;;;;;;;12.90;9.40;;;;;;;;;;5074295;28;20187;-59
2022/07/12 12:27:46;;;;;;;15.77;8.68;;;;;;;;;;5074282;28;20230;-59
2022/07/12 12:30:13;;;;;;;19.20;7.97;;;;;;;;;;5054921;28;20225;-59
2022/07/12 12:32:57;;;;;;;13.52;8.90;;;;;;;;;;5071603;28;20266;-59
2022/07/12 12:35:30;;;;;;;11.82;8.90;;;;;;;;;;5072885;28;20227;-59
2022/07/12 12:37:57;;;;;;;10.80;8.20;;;;;;;;;;5073461;28;20213;-60
2022/07/12 12:40:25;;;;;;;16.15;9.57;;;;;;;;;;5054379;28;20193;-59
2022/07/12 12:42:52;;;;;;;12.50;8.10;;;;;;;;;;5067507;28;20174;-59
2022/07/12 12:45:19;;;;;;;15.80;8.85;;;;;;;;;;5069800;28;20187;-58
2022/07/12 12:47:57;;;;;;;11.25;7.97;;;;;;;;;;5055791;28;20210;-58
2022/07/12 12:50:47;;;;;;;15.35;8.75;;;;;;;;;;5055046;28;20200;-58
2022/07/12 12:53:13;;;;;;;17.63;10.57;;;;;;;;;;5066143;28;20294;-59
2022/07/12 12:55:39;;;;;;;23.65;11.63;;;;;;;;;;5054673;28;20218;-59
2022/07/12 12:58:06;;;;;;;30.67;12.82;;;;;;;;;;5071262;28;20178;-59
2022/07/12 13:00:33;;;;;;;23.23;11.57;;;;;;;;;;5068547;28;20519;-59
2022/07/12 13:03:00;;;;;;;20.00;11.03;;;;;;;;;;5069855;28;20438;-58
2022/07/12 13:05:27;;;;;;;42.08;12.68;;;;;;;;;;5067576;28;20186;-59
2022/07/12 13:07:53;;;;;;;19.40;11.75;;;;;;;;;;5072701;28;20187;-59
2022/07/12 13:10:19;;;;;;;17.30;10.85;;;;;;;;;;5070377;28;20205;-59
2022/07/12 13:12:46;;;;;;;20.02;9.98;;;;;;;;;;5070347;28;20217;-60
2022/07/12 13:15:12;;;;;;;18.75;10.05;;;;;;;;;;5072707;28;20284;-60
2022/07/12 13:17:38;;;;;;;13.35;10.00;;;;;;;;;;5071002;28;20196;-59
2022/07/12 13:20:07;;;;;;;14.02;8.68;;;;;;;;;;5055706;28;20182;-59
2022/07/12 13:22:33;;;;;;;23.98;10.23;;;;;;;;;;5072468;28;20635;-60
2022/07/12 13:24:59;;;;;;;15.38;9.48;;;;;;;;;;5073936;28;20634;-60
2022/07/12 13:27:29;;;;;;;14.05;9.30;;;;;;;;;;5069957;28;20222;-60
2022/07/12 13:29:55;;;;;;;10.40;8.38;;;;;;;;;;5067056;28;20187;-60
2022/07/12 13:32:21;;;;;;;9.85;7.75;;;;;;;;;;5054243;28;20215;-60
2022/07/12 13:34:48;;;;;;;16.83;7.85;;;;;;;;;;5054775;28;20806;-60
2022/07/12 13:37:14;;;;;;;13.43;8.65;;;;;;;;;;5072794;28;20205;-60
2022/07/12 13:42:25;;;;;;;13.95;7.82;;;;;;;;;;5057641;28;20187;-60
2022/07/12 13:44:52;;;;;;;12.60;8.45;;;;;;;;;;5072188;28;20193;-59
2022/07/12 13:47:19;;;;;;;23.02;8.27;;;;;;;;;;5052902;28;20621;-60
2022/07/12 13:49:46;;;;;;;14.75;7.35;;;;;;;;;;5072570;28;20174;-59
2022/07/12 13:52:12;;;;;;;11.60;8.00;;;;;;;;;;5053911;28;20467;-58
2022/07/12 13:54:38;;;;;;;11.40;7.80;;;;;;;;;;5072020;28;20210;-57
2022/07/12 13:57:04;;;;;;;12.65;7.55;;;;;;;;;;5069880;28;20266;-58
2022/07/12 13:59:30;;;;;;;14.30;7.47;;;;;;;;;;5069504;28;20183;-58
2022/07/12 14:01:56;;;;;;;9.45;7.28;;;;;;;;;;5034461;28;20731;-58
2022/07/12 14:04:23;;;;;;;11.20;7.10;;;;;;;;;;5072874;28;20198;-58
2022/07/12 14:06:49;;;;;;;9.15;6.97;;;;;;;;;;5070417;28;20207;-58
2022/07/12 14:09:15;;;;;;;15.38;7.28;;;;;;;;;;5055182;28;20265;-58
2022/07/12 14:11:41;;;;;;;17.00;6.72;;;;;;;;;;5073133;28;20182;-59
2022/07/12 14:14:08;;;;;;;14.45;6.13;;;;;;;;;;5070680;28;20274;-57
2022/07/12 14:16:34;;;;;;;13.07;6.72;;;;;;;;;;5038025;28;20542;-58
2022/07/12 14:19:03;;;;;;;12.07;6.57;;;;;;;;;;5054552;28;20182;-61
2022/07/12 14:21:29;;;;;;;9.48;6.13;;;;;;;;;;5070643;28;20614;-60
2022/07/12 14:24:00;;;;;;;9.18;6.32;;;;;;;;;;5056172;28;20215;-60
2022/07/12 14:26:27;;;;;;;7.22;5.90;;;;;;;;;;5051401;28;20323;-59
2022/07/12 14:28:53;;;;;;;11.00;6.35;;;;;;;;;;5051538;28;20661;-59
2022/07/12 14:31:19;;;;;;;10.18;5.28;;;;;;;;;;5073074;28;20516;-60
2022/07/12 14:33:46;;;;;;;10.65;5.60;;;;;;;;;;5068942;28;20174;-59
2022/07/12 14:36:12;;;;;;;9.35;5.10;;;;;;;;;;5054640;28;20230;-59
2022/07/12 14:38:39;;;;;;;7.90;5.28;;;;;;;;;;5043677;28;20648;-59
2022/07/12 14:41:05;;;;;;;8.20;5.32;;;;;;;;;;5071649;28;20185;-60
2022/07/12 14:43:31;;;;;;;6.25;4.47;;;;;;;;;;5063788;28;20179;-59
2022/07/12 14:45:57;;;;;;;9.10;5.60;;;;;;;;;;5054574;28;20522;-59